METAR Data
IDs: Format: Raw Decoded Include TAF

Data at: 2335 UTC 25 Oct 2021

PAMH 242209Z AUTO 00000KT 4SM -SN BR OVC004 M04/M04 A2944 RMK AO2 UPB01E06SNB06 P0000 FZRANO
PAMH 242156Z AUTO 00000KT 10SM OVC002 M04/M04 A2944 RMK AO2 UPB17E45 SLP976 P0000 T10391044 FZRANO
PAMH 242134Z AUTO 00000KT 3SM UP BR OVC002 M04/M04 A2944 RMK AO2 UPB17 P0000 FZRANO
PAMH 242124Z AUTO 00000KT 2SM UP BR OVC002 M04/M04 A2944 RMK AO2 VIS 1V4 UPB17 P0000 FZRANO
PAMH 242118Z AUTO 00000KT 1SM UP BR OVC002 M04/M05 A2944 RMK AO2 UPB17 P0000 FZRANO
PAMH 242056Z AUTO 00000KT 1/2SM FZFG OVC002 M04/M05 A2945 RMK AO2 SLP980 60000 T10441050 58001 FZRANO
PAMH 242026Z AUTO 00000KT 1/4SM FZFG OVC002 M04/M05 A2946 RMK AO2 FZRANO
PAMH 241956Z AUTO 00000KT 1/2SM FZFG OVC002 M05/M06 A2945 RMK AO2 SNE1857B15E25 SLP981 P0000 T10501056 FZRANO
PAMH 241941Z AUTO 00000KT 3/4SM BR OVC002 M05/M06 A2946 RMK AO2 SNE1857B15E25 P0000 FZRANO
PAMH 241926Z AUTO 00000KT 1 1/4SM BR OVC002 M06/M06 A2945 RMK AO2 VIS 3/4V2 SNE1857B15E25 P0000 FZRANO
PAMH 241921Z AUTO 00000KT 3/4SM -SN BR OVC002 M06/M06 A2945 RMK AO2 SNE1857B15 P0000 FZRANO
PAMH 241856Z AUTO 00000KT 1 1/2SM -SN BR OVC002 M06/M07 A2945 RMK AO2 VIS 1V4 SNB27 SLP979 P0000 T10561067 FZRANO
PAMH 241851Z AUTO 00000KT 1SM -SN BR OVC002 M06/M07 A2945 RMK AO2 SNB27 P0000 FZRANO
PAMH 241838Z AUTO 00000KT 3/4SM -SN BR OVC002 M06/M07 A2946 RMK AO2 SNB27 P0000 FZRANO
PAMH 241830Z AUTO 00000KT 1SM -SN BR OVC002 M06/M07 A2946 RMK AO2 SNB27 P0000 FZRANO
PAMH 241756Z AUTO 00000KT 1 3/4SM BR OVC004 M06/M07 A2946 RMK AO2 SLP980 60000 T10611072 11061 21067 51003 FZRANO
PAMH 241754Z AUTO 00000KT 2SM BR OVC004 M06/M07 A2946 RMK AO2 FZRANO
PAMH 241711Z AUTO 00000KT 10SM OVC006 M07/M07 A2945 RMK AO2 CIG 002V007 FZRANO
PAMH 241656Z AUTO 00000KT 10SM BKN003 OVC006 M07/M07 A2945 RMK AO2 SLP979 T10671072 FZRANO
PAMH 241640Z AUTO 00000KT 5SM BR OVC003 M07/M07 A2945 RMK AO2 FZRANO
PAMH 241630Z AUTO 00000KT 2SM BR OVC003 M07/M07 A2945 RMK AO2 VIS 1 1/4V5 FZRANO
PAMH 241556Z AUTO 20003KT 1 1/4SM BR OVC003 M07/M08 A2945 RMK AO2 SLP977 T10671078 FZRANO
PAMH 241551Z AUTO 22004KT 1SM BR OVC003 M07/M08 A2945 RMK AO2 FZRANO
PAMH 241531Z AUTO 21003KT 1 3/4SM BR OVC003 M07/M08 A2945 RMK AO2 FZRANO
PAMH 241509Z AUTO 21003KT 3SM BR OVC003 M07/M07 A2944 RMK AO2 FZRANO
PAMH 241456Z AUTO 00000KT 1 1/4SM BR OVC003 M07/M07 A2944 RMK AO2 SLP974 60000 T10671072 53011 FZRANO
PAMH 241447Z AUTO VRB03KT 1 1/2SM BR OVC003 M07/M07 A2944 RMK AO2 VIS 3/4V5 FZRANO
PAMH 241356Z AUTO 00000KT 6SM BR OVC003 M06/M07 A2942 RMK AO2 SNE25 SLP968 P0000 T10611072 FZRANO
PAMH 241354Z AUTO 00000KT 5SM BR OVC003 M06/M07 A2942 RMK AO2 SNE25 P0000 FZRANO
PAMH 241337Z AUTO 00000KT 2SM BR OVC003 M06/M07 A2942 RMK AO2 VIS 1V5 SNE25 P0000 FZRANO
PAMH 241323Z AUTO 23003KT 1SM -SN BR OVC003 M06/M07 A2941 RMK AO2 P0000 FZRANO
PAMH 241256Z AUTO 23003KT 3/4SM -SN BR OVC003 M06/M07 A2940 RMK AO2 SNB08E22B56 SLP962 P0000 T10611067 FZRANO
PAMH 241244Z AUTO 00000KT 1/2SM FZFG OVC003 M06/M07 A2940 RMK AO2 SNB08E22 P0000 FZRANO
PAMH 241237Z AUTO 00000KT 3/4SM BR OVC003 M06/M07 A2940 RMK AO2 SNB08E22 P0000 FZRANO
PAMH 241212Z AUTO 00000KT 1SM -SN BR OVC003 M06/M07 A2939 RMK AO2 SNB08 P0000 FZRANO
PAMH 241156Z AUTO 00000KT 1 1/2SM BR OVC003 M06/M07 A2939 RMK AO2 VIS 1V2 SNE22 SLP958 P0000 60000 T10611067 11028 21061 51012 FZRANO
PAMH 241148Z AUTO 00000KT 1SM BR OVC003 M06/M07 A2939 RMK AO2 SNE22 P0000 FZRANO
PAMH 241140Z AUTO 00000KT 3/4SM BR OVC003 M06/M07 A2938 RMK AO2 SNE22 P0000 FZRANO